sensor_id;sensor_type;location;lat;lon;timestamp;pressure;altitude;pressure_sealevel;temperature;humidity
62055;BME280;48653;51.742;-1.256;2023-04-09T00:01:56;101820.30;;;10.31;42.39
62055;BME280;48653;51.742;-1.256;2023-04-09T00:04:21;101815.79;;;10.62;41.92
62055;BME280;48653;51.742;-1.256;2023-04-09T00:06:46;101816.41;;;10.35;42.07
62055;BME280;48653;51.742;-1.256;2023-04-09T00:09:11;101811.34;;;10.33;41.78
62055;BME280;48653;51.742;-1.256;2023-04-09T00:11:37;101812.33;;;10.27;41.99
62055;BME280;48653;51.742;-1.256;2023-04-09T00:14:03;101810.63;;;10.31;42.21
62055;BME280;48653;51.742;-1.256;2023-04-09T00:16:29;101809.02;;;10.23;42.07
62055;BME280;48653;51.742;-1.256;2023-04-09T00:18:54;101811.77;;;10.03;42.61
62055;BME280;48653;51.742;-1.256;2023-04-09T00:21:19;101808.85;;;9.88;42.87
62055;BME280;48653;51.742;-1.256;2023-04-09T00:23:44;101804.98;;;10.25;42.23
62055;BME280;48653;51.742;-1.256;2023-04-09T00:26:10;101802.22;;;10.07;42.34
62055;BME280;48653;51.742;-1.256;2023-04-09T00:28:36;101802.96;;;9.71;43.24
62055;BME280;48653;51.742;-1.256;2023-04-09T00:31:02;101803.39;;;9.84;42.93
62055;BME280;48653;51.742;-1.256;2023-04-09T00:33:27;101795.57;;;10.03;42.86
62055;BME280;48653;51.742;-1.256;2023-04-09T00:35:52;101790.59;;;10.22;42.79
62055;BME280;48653;51.742;-1.256;2023-04-09T00:38:17;101792.58;;;9.70;43.41
62055;BME280;48653;51.742;-1.256;2023-04-09T00:40:47;101792.05;;;9.76;43.31
62055;BME280;48653;51.742;-1.256;2023-04-09T00:43:08;101789.43;;;9.85;43.00
62055;BME280;48653;51.742;-1.256;2023-04-09T00:45:34;101786.24;;;9.86;43.49
62055;BME280;48653;51.742;-1.256;2023-04-09T00:47:59;101781.97;;;9.82;43.70
62055;BME280;48653;51.742;-1.256;2023-04-09T00:50:24;101774.77;;;10.04;43.27
62055;BME280;48653;51.742;-1.256;2023-04-09T00:52:50;101768.52;;;9.78;43.48
62055;BME280;48653;51.742;-1.256;2023-04-09T00:55:15;101765.29;;;9.94;43.01
62055;BME280;48653;51.742;-1.256;2023-04-09T00:57:40;101764.67;;;9.64;44.65
62055;BME280;48653;51.742;-1.256;2023-04-09T01:00:07;101759.68;;;9.52;44.58
62055;BME280;48653;51.742;-1.256;2023-04-09T01:02:32;101749.88;;;9.56;43.98
62055;BME280;48653;51.742;-1.256;2023-04-09T01:04:57;101743.94;;;10.02;43.95
62055;BME280;48653;51.742;-1.256;2023-04-09T01:07:30;101746.96;;;9.66;44.32
62055;BME280;48653;51.742;-1.256;2023-04-09T01:09:55;101743.96;;;9.85;43.94
62055;BME280;48653;51.742;-1.256;2023-04-09T01:12:20;101738.88;;;9.71;43.61
62055;BME280;48653;51.742;-1.256;2023-04-09T01:14:44;101740.45;;;9.53;44.70
62055;BME280;48653;51.742;-1.256;2023-04-09T01:17:09;101742.60;;;9.24;45.11
62055;BME280;48653;51.742;-1.256;2023-04-09T01:19:41;101741.73;;;9.64;43.72
62055;BME280;48653;51.742;-1.256;2023-04-09T01:21:57;101738.51;;;9.69;43.66
62055;BME280;48653;51.742;-1.256;2023-04-09T01:24:30;101741.47;;;9.40;44.09
62055;BME280;48653;51.742;-1.256;2023-04-09T01:26:53;101738.54;;;9.51;43.50
62055;BME280;48653;51.742;-1.256;2023-04-09T01:29:14;101741.00;;;9.62;43.63
62055;BME280;48653;51.742;-1.256;2023-04-09T01:31:39;101738.91;;;9.89;43.70
62055;BME280;48653;51.742;-1.256;2023-04-09T01:34:05;101739.20;;;9.40;43.36
62055;BME280;48653;51.742;-1.256;2023-04-09T01:36:30;101734.55;;;9.68;43.58
62055;BME280;48653;51.742;-1.256;2023-04-09T01:38:55;101736.20;;;9.84;43.46
62055;BME280;48653;51.742;-1.256;2023-04-09T01:41:21;101731.06;;;9.36;44.02
62055;BME280;48653;51.742;-1.256;2023-04-09T01:43:47;101731.18;;;9.79;43.40
62055;BME280;48653;51.742;-1.256;2023-04-09T01:46:12;101731.04;;;9.61;43.31
62055;BME280;48653;51.742;-1.256;2023-04-09T01:48:37;101731.56;;;9.12;43.19
62055;BME280;48653;51.742;-1.256;2023-04-09T01:51:03;101733.65;;;9.47;43.02
62055;BME280;48653;51.742;-1.256;2023-04-09T01:53:28;101732.31;;;9.51;43.32
62055;BME280;48653;51.742;-1.256;2023-04-09T01:55:53;101728.87;;;9.55;43.11
62055;BME280;48653;51.742;-1.256;2023-04-09T01:58:19;101727.54;;;9.41;43.24
62055;BME280;48653;51.742;-1.256;2023-04-09T02:00:47;101726.70;;;9.42;43.80
62055;BME280;48653;51.742;-1.256;2023-04-09T02:03:14;101725.23;;;9.18;44.07
62055;BME280;48653;51.742;-1.256;2023-04-09T02:05:39;101723.93;;;9.17;43.58
62055;BME280;48653;51.742;-1.256;2023-04-09T02:08:02;101722.37;;;9.08;44.32
62055;BME280;48653;51.742;-1.256;2023-04-09T02:10:29;101718.35;;;8.95;44.61
62055;BME280;48653;51.742;-1.256;2023-04-09T02:12:53;101715.19;;;9.28;43.98
62055;BME280;48653;51.742;-1.256;2023-04-09T02:15:19;101715.51;;;9.04;43.93
62055;BME280;48653;51.742;-1.256;2023-04-09T02:17:44;101715.00;;;9.24;44.26
62055;BME280;48653;51.742;-1.256;2023-04-09T02:20:10;101717.79;;;8.88;44.13
62055;BME280;48653;51.742;-1.256;2023-04-09T02:22:35;101720.44;;;9.23;44.38
62055;BME280;48653;51.742;-1.256;2023-04-09T02:25:01;101725.48;;;8.86;44.35
62055;BME280;48653;51.742;-1.256;2023-04-09T02:27:26;101722.94;;;9.16;44.34
62055;BME280;48653;51.742;-1.256;2023-04-09T02:29:51;101718.78;;;8.88;44.67
62055;BME280;48653;51.742;-1.256;2023-04-09T02:32:17;101713.95;;;9.07;44.38
62055;BME280;48653;51.742;-1.256;2023-04-09T02:34:42;101707.78;;;8.76;44.86
62055;BME280;48653;51.742;-1.256;2023-04-09T02:37:07;101702.11;;;9.11;44.34
62055;BME280;48653;51.742;-1.256;2023-04-09T02:39:33;101701.45;;;9.00;45.33
62055;BME280;48653;51.742;-1.256;2023-04-09T02:41:58;101700.80;;;8.60;44.48
62055;BME280;48653;51.742;-1.256;2023-04-09T02:44:23;101703.46;;;8.64;44.62
62055;BME280;48653;51.742;-1.256;2023-04-09T02:46:50;101708.30;;;8.69;45.27
62055;BME280;48653;51.742;-1.256;2023-04-09T02:49:15;101711.60;;;8.56;44.49
62055;BME280;48653;51.742;-1.256;2023-04-09T02:51:41;101715.49;;;8.73;44.55
62055;BME280;48653;51.742;-1.256;2023-04-09T02:54:06;101718.61;;;8.76;44.27
62055;BME280;48653;51.742;-1.256;2023-04-09T02:56:31;101718.53;;;8.53;44.77
62055;BME280;48653;51.742;-1.256;2023-04-09T02:58:57;101719.94;;;8.50;44.37
62055;BME280;48653;51.742;-1.256;2023-04-09T03:01:22;101717.74;;;8.71;44.68
62055;BME280;48653;51.742;-1.256;2023-04-09T03:03:47;101722.29;;;8.40;45.11
62055;BME280;48653;51.742;-1.256;2023-04-09T03:06:13;101721.01;;;8.38;44.86
62055;BME280;48653;51.742;-1.256;2023-04-09T03:08:39;101718.76;;;8.08;45.08
62055;BME280;48653;51.742;-1.256;2023-04-09T03:11:04;101708.89;;;8.21;44.38
62055;BME280;48653;51.742;-1.256;2023-04-09T03:13:30;101701.21;;;8.17;44.78
62055;BME280;48653;51.742;-1.256;2023-04-09T03:15:56;101701.41;;;8.40;44.25
62055;BME280;48653;51.742;-1.256;2023-04-09T03:18:21;101698.72;;;8.12;44.44
62055;BME280;48653;51.742;-1.256;2023-04-09T03:20:47;101700.48;;;7.97;44.28
62055;BME280;48653;51.742;-1.256;2023-04-09T03:23:13;101701.69;;;8.23;44.04
62055;BME280;48653;51.742;-1.256;2023-04-09T03:25:39;101701.03;;;8.09;44.35
62055;BME280;48653;51.742;-1.256;2023-04-09T03:28:04;101701.39;;;8.15;44.35
62055;BME280;48653;51.742;-1.256;2023-04-09T03:30:29;101705.96;;;7.81;44.76
62055;BME280;48653;51.742;-1.256;2023-04-09T03:32:54;101706.94;;;7.96;44.47
62055;BME280;48653;51.742;-1.256;2023-04-09T03:35:20;101702.57;;;8.20;44.28
62055;BME280;48653;51.742;-1.256;2023-04-09T03:37:45;101701.25;;;7.89;44.49
62055;BME280;48653;51.742;-1.256;2023-04-09T03:40:12;101698.72;;;8.07;44.67
62055;BME280;48653;51.742;-1.256;2023-04-09T03:42:36;101701.19;;;7.58;45.13
62055;BME280;48653;51.742;-1.256;2023-04-09T03:45:02;101699.72;;;7.97;44.36
62055;BME280;48653;51.742;-1.256;2023-04-09T03:47:27;101701.29;;;7.83;44.60
62055;BME280;48653;51.742;-1.256;2023-04-09T03:49:52;101700.86;;;7.76;44.83
62055;BME280;48653;51.742;-1.256;2023-04-09T03:52:17;101699.75;;;7.76;44.45
62055;BME280;48653;51.742;-1.256;2023-04-09T03:54:43;101697.75;;;7.65;44.82
62055;BME280;48653;51.742;-1.256;2023-04-09T03:57:08;101695.44;;;7.64;45.03
62055;BME280;48653;51.742;-1.256;2023-04-09T03:59:34;101692.04;;;7.46;45.31
62055;BME280;48653;51.742;-1.256;2023-04-09T04:01:59;101690.31;;;7.70;44.93
62055;BME280;48653;51.742;-1.256;2023-04-09T04:04:24;101687.87;;;7.71;44.96
62055;BME280;48653;51.742;-1.256;2023-04-09T04:06:50;101686.52;;;7.73;45.27
62055;BME280;48653;51.742;-1.256;2023-04-09T04:09:16;101685.97;;;7.66;45.38
62055;BME280;48653;51.742;-1.256;2023-04-09T04:11:41;101686.74;;;7.65;44.97
62055;BME280;48653;51.742;-1.256;2023-04-09T04:14:06;101683.79;;;7.64;45.06
62055;BME280;48653;51.742;-1.256;2023-04-09T04:16:32;101680.27;;;7.44;45.88
62055;BME280;48653;51.742;-1.256;2023-04-09T04:18:57;101677.19;;;7.44;45.52
62055;BME280;48653;51.742;-1.256;2023-04-09T04:21:23;101669.98;;;7.65;45.27
62055;BME280;48653;51.742;-1.256;2023-04-09T04:23:48;101662.38;;;7.47;45.43
62055;BME280;48653;51.742;-1.256;2023-04-09T04:26:13;101656.14;;;7.46;46.75
62055;BME280;48653;51.742;-1.256;2023-04-09T04:28:39;101651.98;;;7.42;46.58
62055;BME280;48653;51.742;-1.256;2023-04-09T04:31:07;101652.71;;;7.13;46.12
62055;BME280;48653;51.742;-1.256;2023-04-09T04:33:30;101648.32;;;7.01;46.15
62055;BME280;48653;51.742;-1.256;2023-04-09T04:36:04;101648.97;;;7.41;45.48
62055;BME280;48653;51.742;-1.256;2023-04-09T04:38:21;101648.80;;;7.06;45.39
62055;BME280;48653;51.742;-1.256;2023-04-09T04:40:47;101649.19;;;7.39;45.08
62055;BME280;48653;51.742;-1.256;2023-04-09T04:43:12;101651.75;;;7.53;44.76
62055;BME280;48653;51.742;-1.256;2023-04-09T04:45:37;101646.30;;;7.27;45.50
62055;BME280;48653;51.742;-1.256;2023-04-09T04:48:03;101642.82;;;7.42;45.33
62055;BME280;48653;51.742;-1.256;2023-04-09T04:50:29;101636.84;;;6.82;45.69
62055;BME280;48653;51.742;-1.256;2023-04-09T04:52:55;101635.71;;;7.25;45.21
62055;BME280;48653;51.742;-1.256;2023-04-09T04:55:20;101634.21;;;7.03;45.00
62055;BME280;48653;51.742;-1.256;2023-04-09T04:57:46;101631.83;;;7.12;44.76
62055;BME280;48653;51.742;-1.256;2023-04-09T05:00:12;101636.22;;;6.99;45.40
62055;BME280;48653;51.742;-1.256;2023-04-09T05:02:37;101637.06;;;6.74;45.50
62055;BME280;48653;51.742;-1.256;2023-04-09T05:05:02;101636.17;;;7.01;44.80
62055;BME280;48653;51.742;-1.256;2023-04-09T05:07:27;101639.65;;;6.96;44.83
62055;BME280;48653;51.742;-1.256;2023-04-09T05:09:53;101636.36;;;6.71;45.56
62055;BME280;48653;51.742;-1.256;2023-04-09T05:12:19;101634.81;;;6.74;45.29
62055;BME280;48653;51.742;-1.256;2023-04-09T05:14:44;101638.67;;;6.78;45.20
62055;BME280;48653;51.742;-1.256;2023-04-09T05:17:10;101635.43;;;6.62;44.90
62055;BME280;48653;51.742;-1.256;2023-04-09T05:19:35;101637.47;;;6.67;45.24
62055;BME280;48653;51.742;-1.256;2023-04-09T05:22:01;101639.13;;;6.32;45.81
62055;BME280;48653;51.742;-1.256;2023-04-09T05:24:26;101641.38;;;6.61;45.41
62055;BME280;48653;51.742;-1.256;2023-04-09T05:26:52;101637.64;;;6.37;45.93
62055;BME280;48653;51.742;-1.256;2023-04-09T05:29:17;101634.85;;;6.68;45.47
62055;BME280;48653;51.742;-1.256;2023-04-09T05:31:43;101637.43;;;6.52;45.42
62055;BME280;48653;51.742;-1.256;2023-04-09T05:34:08;101639.87;;;6.62;45.52
62055;BME280;48653;51.742;-1.256;2023-04-09T05:36:33;101641.26;;;6.50;45.70
62055;BME280;48653;51.742;-1.256;2023-04-09T05:38:59;101639.75;;;6.52;45.30
62055;BME280;48653;51.742;-1.256;2023-04-09T05:41:24;101637.47;;;6.63;45.02
62055;BME280;48653;51.742;-1.256;2023-04-09T05:43:50;101634.95;;;6.73;45.48
62055;BME280;48653;51.742;-1.256;2023-04-09T05:46:15;101630.75;;;6.53;45.48
62055;BME280;48653;51.742;-1.256;2023-04-09T05:48:41;101624.55;;;6.47;45.85
62055;BME280;48653;51.742;-1.256;2023-04-09T05:51:06;101617.16;;;6.57;45.56
62055;BME280;48653;51.742;-1.256;2023-04-09T05:53:33;101613.79;;;6.52;45.67
62055;BME280;48653;51.742;-1.256;2023-04-09T05:55:58;101613.44;;;6.66;45.36
62055;BME280;48653;51.742;-1.256;2023-04-09T05:58:23;101613.00;;;6.77;45.21
62055;BME280;48653;51.742;-1.256;2023-04-09T06:00:48;101606.41;;;6.76;45.71
62055;BME280;48653;51.742;-1.256;2023-04-09T06:03:13;101603.06;;;6.91;46.07
62055;BME280;48653;51.742;-1.256;2023-04-09T06:05:38;101601.04;;;6.54;46.11
62055;BME280;48653;51.742;-1.256;2023-04-09T06:08:04;101601.98;;;6.75;46.69
62055;BME280;48653;51.742;-1.256;2023-04-09T06:10:31;101598.32;;;6.87;46.16
62055;BME280;48653;51.742;-1.256;2023-04-09T06:12:55;101600.03;;;6.67;46.45
62055;BME280;48653;51.742;-1.256;2023-04-09T06:15:20;101606.28;;;6.85;46.64
62055;BME280;48653;51.742;-1.256;2023-04-09T06:17:46;101608.74;;;6.98;46.54
62055;BME280;48653;51.742;-1.256;2023-04-09T06:20:12;101603.91;;;6.88;46.62
62055;BME280;48653;51.742;-1.256;2023-04-09T06:22:37;101604.03;;;6.86;47.05
62055;BME280;48653;51.742;-1.256;2023-04-09T06:25:04;101597.56;;;7.15;46.39
62055;BME280;48653;51.742;-1.256;2023-04-09T06:27:29;101593.34;;;6.93;46.99
62055;BME280;48653;51.742;-1.256;2023-04-09T06:29:54;101592.56;;;6.98;46.69
62055;BME280;48653;51.742;-1.256;2023-04-09T06:32:20;101594.76;;;7.32;47.54
62055;BME280;48653;51.742;-1.256;2023-04-09T06:34:46;101597.96;;;6.98;47.87
62055;BME280;48653;51.742;-1.256;2023-04-09T06:37:11;101598.06;;;6.87;49.37
62055;BME280;48653;51.742;-1.256;2023-04-09T06:39:36;101594.77;;;7.51;48.69
62055;BME280;48653;51.742;-1.256;2023-04-09T06:42:02;101600.86;;;6.73;49.22
62055;BME280;48653;51.742;-1.256;2023-04-09T06:44:27;101605.89;;;7.31;48.39
62055;BME280;48653;51.742;-1.256;2023-04-09T06:46:52;101610.81;;;7.29;47.56
62055;BME280;48653;51.742;-1.256;2023-04-09T06:49:17;101615.08;;;7.28;48.21
62055;BME280;48653;51.742;-1.256;2023-04-09T06:51:43;101615.31;;;7.29;48.69
62055;BME280;48653;51.742;-1.256;2023-04-09T06:54:08;101616.10;;;7.53;48.56
62055;BME280;48653;51.742;-1.256;2023-04-09T06:56:34;101614.49;;;7.81;49.29
62055;BME280;48653;51.742;-1.256;2023-04-09T06:58:59;101624.91;;;7.12;50.61
62055;BME280;48653;51.742;-1.256;2023-04-09T07:01:25;101626.02;;;5.51;56.92
62055;BME280;48653;51.742;-1.256;2023-04-09T07:03:50;101617.37;;;6.86;53.34
62055;BME280;48653;51.742;-1.256;2023-04-09T07:06:15;101614.39;;;7.03;53.21
62055;BME280;48653;51.742;-1.256;2023-04-09T07:08:41;101616.84;;;7.15;54.13
62055;BME280;48653;51.742;-1.256;2023-04-09T07:11:07;101617.91;;;7.23;53.40
62055;BME280;48653;51.742;-1.256;2023-04-09T07:13:32;101620.63;;;7.71;52.99
62055;BME280;48653;51.742;-1.256;2023-04-09T07:15:58;101621.17;;;7.42;52.78
62055;BME280;48653;51.742;-1.256;2023-04-09T07:18:23;101623.52;;;7.49;53.16
62055;BME280;48653;51.742;-1.256;2023-04-09T07:20:48;101624.45;;;7.46;53.84
62055;BME280;48653;51.742;-1.256;2023-04-09T07:23:14;101621.51;;;7.75;53.02
62055;BME280;48653;51.742;-1.256;2023-04-09T07:25:39;101620.69;;;7.89;52.89
62055;BME280;48653;51.742;-1.256;2023-04-09T07:28:05;101617.49;;;8.59;51.64
62055;BME280;48653;51.742;-1.256;2023-04-09T07:30:30;101618.98;;;8.42;52.12
62055;BME280;48653;51.742;-1.256;2023-04-09T07:32:56;101617.89;;;7.48;54.65
62055;BME280;48653;51.742;-1.256;2023-04-09T07:35:21;101613.89;;;7.25;55.08
62055;BME280;48653;51.742;-1.256;2023-04-09T07:37:46;101612.70;;;6.81;56.82
62055;BME280;48653;51.742;-1.256;2023-04-09T07:40:12;101608.39;;;6.19;58.66
62055;BME280;48653;51.742;-1.256;2023-04-09T07:42:37;101604.14;;;5.93;60.42
62055;BME280;48653;51.742;-1.256;2023-04-09T07:45:03;101607.37;;;6.13;60.98
62055;BME280;48653;51.742;-1.256;2023-04-09T07:47:28;101603.00;;;6.65;59.74
62055;BME280;48653;51.742;-1.256;2023-04-09T07:49:54;101600.08;;;6.77;58.44
62055;BME280;48653;51.742;-1.256;2023-04-09T07:52:19;101598.21;;;7.19;56.80
62055;BME280;48653;51.742;-1.256;2023-04-09T07:54:44;101605.34;;;6.73;59.49
62055;BME280;48653;51.742;-1.256;2023-04-09T07:57:10;101608.35;;;7.41;56.94
62055;BME280;48653;51.742;-1.256;2023-04-09T07:59:36;101605.43;;;6.68;58.40
62055;BME280;48653;51.742;-1.256;2023-04-09T08:02:01;101602.00;;;7.10;57.53
62055;BME280;48653;51.742;-1.256;2023-04-09T08:04:26;101606.66;;;7.71;55.52
62055;BME280;48653;51.742;-1.256;2023-04-09T08:06:52;101614.09;;;7.85;54.98
62055;BME280;48653;51.742;-1.256;2023-04-09T08:09:17;101613.65;;;7.82;55.19
62055;BME280;48653;51.742;-1.256;2023-04-09T08:11:43;101612.81;;;6.52;58.21
62055;BME280;48653;51.742;-1.256;2023-04-09T08:14:07;101611.47;;;7.56;56.49
62055;BME280;48653;51.742;-1.256;2023-04-09T08:16:33;101607.93;;;6.77;57.56
62055;BME280;48653;51.742;-1.256;2023-04-09T08:18:58;101604.14;;;6.94;57.73
62055;BME280;48653;51.742;-1.256;2023-04-09T08:21:24;101603.26;;;6.81;57.17
62055;BME280;48653;51.742;-1.256;2023-04-09T08:23:49;101604.76;;;7.76;55.80
62055;BME280;48653;51.742;-1.256;2023-04-09T08:26:15;101604.07;;;8.49;53.56
62055;BME280;48653;51.742;-1.256;2023-04-09T08:28:40;101608.09;;;8.66;52.86
62055;BME280;48653;51.742;-1.256;2023-04-09T08:31:08;101610.56;;;8.31;53.15
62055;BME280;48653;51.742;-1.256;2023-04-09T08:33:32;101609.78;;;8.34;52.73
62055;BME280;48653;51.742;-1.256;2023-04-09T08:35:57;101610.07;;;7.94;53.58
62055;BME280;48653;51.742;-1.256;2023-04-09T08:38:22;101610.63;;;7.53;54.54
62055;BME280;48653;51.742;-1.256;2023-04-09T08:40:48;101611.57;;;8.54;52.88
62055;BME280;48653;51.742;-1.256;2023-04-09T08:43:14;101609.86;;;7.98;53.40
62055;BME280;48653;51.742;-1.256;2023-04-09T08:45:39;101606.34;;;8.53;51.77
62055;BME280;48653;51.742;-1.256;2023-04-09T08:48:04;101599.21;;;9.36;50.30
62055;BME280;48653;51.742;-1.256;2023-04-09T08:50:30;101606.03;;;9.21;49.80
62055;BME280;48653;51.742;-1.256;2023-04-09T08:52:54;101597.17;;;8.79;50.21
62055;BME280;48653;51.742;-1.256;2023-04-09T08:55:20;101601.24;;;8.90;51.14
62055;BME280;48653;51.742;-1.256;2023-04-09T08:57:45;101601.76;;;8.73;51.15
62055;BME280;48653;51.742;-1.256;2023-04-09T09:00:12;101613.66;;;8.61;52.11
62055;BME280;48653;51.742;-1.256;2023-04-09T09:02:36;101610.44;;;9.33;50.64
62055;BME280;48653;51.742;-1.256;2023-04-09T09:05:01;101608.11;;;9.07;50.29
62055;BME280;48653;51.742;-1.256;2023-04-09T09:07:27;101604.00;;;9.37;49.94
62055;BME280;48653;51.742;-1.256;2023-04-09T09:09:53;101603.91;;;9.67;49.69
62055;BME280;48653;51.742;-1.256;2023-04-09T09:14:43;101604.83;;;8.62;51.98
62055;BME280;48653;51.742;-1.256;2023-04-09T09:17:08;101600.95;;;9.17;50.59
62055;BME280;48653;51.742;-1.256;2023-04-09T09:19:33;101599.35;;;9.84;49.38
62055;BME280;48653;51.742;-1.256;2023-04-09T09:22:00;101596.46;;;8.55;50.84
62055;BME280;48653;51.742;-1.256;2023-04-09T09:24:25;101595.61;;;9.12;50.91
62055;BME280;48653;51.742;-1.256;2023-04-09T09:26:51;101589.60;;;9.80;50.07
62055;BME280;48653;51.742;-1.256;2023-04-09T09:29:16;101584.68;;;10.14;49.03
62055;BME280;48653;51.742;-1.256;2023-04-09T09:31:47;101581.98;;;9.10;50.87
62055;BME280;48653;51.742;-1.256;2023-04-09T09:34:08;101576.48;;;10.04;49.16
62055;BME280;48653;51.742;-1.256;2023-04-09T09:36:33;101576.47;;;9.42;51.07
62055;BME280;48653;51.742;-1.256;2023-04-09T09:38:58;101581.35;;;9.47;51.03
62055;BME280;48653;51.742;-1.256;2023-04-09T09:41:23;101574.76;;;9.94;49.66
62055;BME280;48653;51.742;-1.256;2023-04-09T09:43:49;101567.02;;;10.79;48.50
62055;BME280;48653;51.742;-1.256;2023-04-09T09:46:15;101564.13;;;10.06;49.63
62055;BME280;48653;51.742;-1.256;2023-04-09T09:48:39;101563.66;;;10.57;48.96
62055;BME280;48653;51.742;-1.256;2023-04-09T09:51:08;101564.46;;;10.42;48.60
62055;BME280;48653;51.742;-1.256;2023-04-09T09:53:31;101558.42;;;11.38;47.98
62055;BME280;48653;51.742;-1.256;2023-04-09T09:55:56;101549.00;;;12.37;45.54
62055;BME280;48653;51.742;-1.256;2023-04-09T09:58:23;101550.39;;;13.49;43.38
62055;BME280;48653;51.742;-1.256;2023-04-09T10:00:46;101552.99;;;12.97;43.99
62055;BME280;48653;51.742;-1.256;2023-04-09T10:03:16;101552.12;;;13.12;44.03
62055;BME280;48653;51.742;-1.256;2023-04-09T10:05:38;101549.23;;;12.83;43.56
62055;BME280;48653;51.742;-1.256;2023-04-09T10:08:02;101550.71;;;13.54;42.16
62055;BME280;48653;51.742;-1.256;2023-04-09T10:10:28;101547.19;;;13.77;41.24
62055;BME280;48653;51.742;-1.256;2023-04-09T10:12:53;101543.21;;;14.25;39.91
62055;BME280;48653;51.742;-1.256;2023-04-09T10:15:19;101543.97;;;14.32;39.63
62055;BME280;48653;51.742;-1.256;2023-04-09T10:17:45;101543.81;;;15.14;38.80
62055;BME280;48653;51.742;-1.256;2023-04-09T10:20:13;101539.08;;;15.56;38.32
62055;BME280;48653;51.742;-1.256;2023-04-09T10:22:35;101534.76;;;15.87;38.25
62055;BME280;48653;51.742;-1.256;2023-04-09T10:25:01;101527.60;;;16.42;36.29
62055;BME280;48653;51.742;-1.256;2023-04-09T10:27:26;101521.98;;;17.56;36.33
62055;BME280;48653;51.742;-1.256;2023-04-09T10:29:52;101517.78;;;16.64;35.71
62055;BME280;48653;51.742;-1.256;2023-04-09T10:32:19;101516.48;;;16.35;36.55
62055;BME280;48653;51.742;-1.256;2023-04-09T10:34:43;101515.68;;;16.58;35.61
62055;BME280;48653;51.742;-1.256;2023-04-09T10:37:12;101509.40;;;16.24;36.56
62055;BME280;48653;51.742;-1.256;2023-04-09T10:39:33;101505.72;;;16.86;37.16
62055;BME280;48653;51.742;-1.256;2023-04-09T10:42:00;101499.62;;;16.54;36.85
62055;BME280;48653;51.742;-1.256;2023-04-09T10:44:25;101491.47;;;16.55;37.12
62055;BME280;48653;51.742;-1.256;2023-04-09T10:46:52;101485.52;;;18.02;34.91
62055;BME280;48653;51.742;-1.256;2023-04-09T10:49:17;101477.46;;;17.54;35.06
62055;BME280;48653;51.742;-1.256;2023-04-09T10:51:42;101474.47;;;17.34;35.37
62055;BME280;48653;51.742;-1.256;2023-04-09T10:56:32;101473.50;;;17.09;35.79
62055;BME280;48653;51.742;-1.256;2023-04-09T10:58:58;101466.33;;;17.36;35.37
62055;BME280;48653;51.742;-1.256;2023-04-09T11:01:23;101466.47;;;16.92;36.10
62055;BME280;48653;51.742;-1.256;2023-04-09T11:04:07;101458.39;;;17.31;36.78
62055;BME280;48653;51.742;-1.256;2023-04-09T11:06:15;101452.58;;;17.07;35.32
62055;BME280;48653;51.742;-1.256;2023-04-09T11:08:39;101450.61;;;17.65;34.63
62055;BME280;48653;51.742;-1.256;2023-04-09T11:11:04;101446.22;;;17.44;35.41
62055;BME280;48653;51.742;-1.256;2023-04-09T11:13:31;101448.18;;;17.92;33.60
62055;BME280;48653;51.742;-1.256;2023-04-09T11:15:56;101441.56;;;19.07;33.63
62055;BME280;48653;51.742;-1.256;2023-04-09T11:18:22;101440.29;;;18.68;33.50
62055;BME280;48653;51.742;-1.256;2023-04-09T11:20:46;101434.94;;;18.50;33.45
62055;BME280;48653;51.742;-1.256;2023-04-09T11:23:13;101430.78;;;18.61;34.66
62055;BME280;48653;51.742;-1.256;2023-04-09T11:25:37;101426.62;;;19.27;31.16
62055;BME280;48653;51.742;-1.256;2023-04-09T11:28:03;101420.66;;;19.21;32.03
62055;BME280;48653;51.742;-1.256;2023-04-09T11:30:29;101417.98;;;18.76;32.80
62055;BME280;48653;51.742;-1.256;2023-04-09T11:32:54;101410.57;;;18.31;33.27
62055;BME280;48653;51.742;-1.256;2023-04-09T11:35:21;101408.05;;;19.29;31.87
62055;BME280;48653;51.742;-1.256;2023-04-09T11:37:45;101398.78;;;18.21;32.67
62055;BME280;48653;51.742;-1.256;2023-04-09T11:40:16;101392.95;;;18.14;34.07
62055;BME280;48653;51.742;-1.256;2023-04-09T11:42:35;101391.73;;;18.29;34.06
62055;BME280;48653;51.742;-1.256;2023-04-09T11:45:01;101392.69;;;18.41;33.11
62055;BME280;48653;51.742;-1.256;2023-04-09T11:47:26;101385.47;;;19.51;33.28
62055;BME280;48653;51.742;-1.256;2023-04-09T11:49:52;101383.77;;;19.39;31.89
62055;BME280;48653;51.742;-1.256;2023-04-09T11:52:17;101377.77;;;19.78;30.70
62055;BME280;48653;51.742;-1.256;2023-04-09T11:54:47;101385.39;;;19.34;31.69
62055;BME280;48653;51.742;-1.256;2023-04-09T11:57:08;101381.81;;;19.32;32.96
62055;BME280;48653;51.742;-1.256;2023-04-09T11:59:36;101383.91;;;18.18;32.52
62055;BME280;48653;51.742;-1.256;2023-04-09T12:01:59;101382.57;;;19.26;31.53
62055;BME280;48653;51.742;-1.256;2023-04-09T12:04:24;101375.84;;;17.96;32.79
62055;BME280;48653;51.742;-1.256;2023-04-09T12:06:50;101368.25;;;18.11;32.98
62055;BME280;48653;51.742;-1.256;2023-04-09T12:09:15;101360.98;;;17.74;33.71
62055;BME280;48653;51.742;-1.256;2023-04-09T12:11:43;101363.75;;;16.85;33.67
62055;BME280;48653;51.742;-1.256;2023-04-09T12:14:06;101356.72;;;17.40;33.86
62055;BME280;48653;51.742;-1.256;2023-04-09T12:16:32;101356.68;;;18.02;33.26
62055;BME280;48653;51.742;-1.256;2023-04-09T12:18:59;101355.51;;;18.04;33.31
62055;BME280;48653;51.742;-1.256;2023-04-09T12:21:23;101352.20;;;17.55;33.35
62055;BME280;48653;51.742;-1.256;2023-04-09T12:23:47;101348.73;;;16.53;35.03
62055;BME280;48653;51.742;-1.256;2023-04-09T12:26:13;101347.48;;;16.69;35.34
62055;BME280;48653;51.742;-1.256;2023-04-09T12:28:37;101342.61;;;16.62;35.10
62055;BME280;48653;51.742;-1.256;2023-04-09T12:31:02;101340.88;;;17.53;33.64
62055;BME280;48653;51.742;-1.256;2023-04-09T12:33:28;101340.63;;;16.94;34.94
62055;BME280;48653;51.742;-1.256;2023-04-09T12:35:53;101335.57;;;16.78;34.63
62055;BME280;48653;51.742;-1.256;2023-04-09T12:38:19;101331.78;;;16.93;35.05
62055;BME280;48653;51.742;-1.256;2023-04-09T12:40:44;101327.08;;;17.78;33.70
62055;BME280;48653;51.742;-1.256;2023-04-09T12:43:10;101334.74;;;17.63;33.53